createdAt,value
2017-09-15T00:00:26.195Z,62.30
2017-09-15T00:02:53.818Z,62.20
2017-09-15T00:05:21.387Z,62.30
2017-09-15T00:07:48.979Z,62.20
2017-09-15T00:10:16.587Z,62.10
2017-09-15T00:12:44.183Z,62.10
2017-09-15T00:15:11.839Z,62.10
2017-09-15T00:17:39.442Z,62.10
2017-09-15T00:20:07.015Z,62.10
2017-09-15T00:22:34.579Z,62.10
2017-09-15T00:25:02.199Z,62.00
2017-09-15T00:27:30.358Z,62.00
2017-09-15T00:29:57.958Z,61.40
2017-09-15T00:32:25.562Z,62.10
2017-09-15T00:34:53.138Z,62.00
2017-09-15T00:37:20.742Z,62.00
2017-09-15T00:39:48.399Z,61.80
2017-09-15T00:42:16.002Z,61.90
2017-09-15T00:44:43.599Z,61.90
2017-09-15T00:47:12.098Z,62.00
2017-09-15T00:49:40.466Z,62.00
2017-09-15T00:52:08.059Z,62.70
2017-09-15T00:54:35.698Z,61.50
2017-09-15T00:57:03.957Z,62.00
2017-09-15T00:59:32.347Z,62.00
2017-09-15T01:02:00.002Z,62.00
2017-09-15T01:04:27.598Z,62.00
2017-09-15T01:06:55.199Z,61.90
2017-09-15T01:09:23.078Z,62.00
2017-09-15T01:12:03.121Z,61.80
2017-09-15T01:14:48.209Z,61.80
2017-09-15T01:17:40.521Z,61.20
2017-09-15T01:20:15.522Z,61.30
2017-09-15T01:22:43.115Z,61.30
2017-09-15T01:25:10.967Z,61.90
2017-09-15T01:27:38.599Z,61.80
2017-09-15T01:30:06.196Z,61.80
2017-09-15T01:32:33.790Z,61.70
2017-09-15T01:35:01.919Z,61.70
2017-09-15T01:37:29.551Z,61.80
2017-09-15T01:39:57.158Z,61.80
2017-09-15T01:42:25.423Z,61.60
2017-09-15T01:44:52.994Z,61.50
2017-09-15T01:47:20.595Z,61.40
2017-09-15T01:56:06.909Z,61.50
2017-09-15T01:58:34.515Z,60.90
2017-09-15T02:01:02.103Z,61.00
2017-09-15T02:03:30.539Z,60.90
2017-09-15T02:05:58.114Z,60.70
2017-09-15T02:08:25.711Z,61.00
2017-09-15T02:10:53.339Z,61.10
2017-09-15T02:13:20.934Z,60.80
2017-09-15T02:15:48.522Z,60.90
2017-09-15T02:18:16.122Z,61.00
2017-09-15T02:20:43.697Z,60.70
2017-09-15T02:23:11.291Z,60.60
2017-09-15T02:25:38.894Z,60.30
2017-09-15T02:28:06.458Z,60.60
2017-09-15T02:30:34.035Z,60.80
2017-09-15T02:33:01.622Z,60.60
2017-09-15T02:35:29.234Z,60.40
2017-09-15T02:37:56.843Z,59.90
2017-09-15T02:40:24.466Z,60.80
2017-09-15T02:42:52.063Z,60.70
2017-09-15T02:45:19.634Z,60.60
2017-09-15T02:47:47.222Z,60.30
2017-09-15T02:50:14.815Z,60.10
2017-09-15T02:52:42.415Z,60.30
2017-09-15T02:55:10.035Z,60.50
2017-09-15T02:57:37.808Z,60.30
2017-09-15T03:00:06.079Z,60.20
2017-09-15T03:02:33.673Z,59.70
2017-09-15T03:05:02.042Z,60.10
2017-09-15T03:07:29.614Z,60.20
2017-09-15T03:09:58.509Z,59.90
2017-09-15T03:12:26.430Z,59.60
2017-09-15T03:14:54.943Z,60.30
2017-09-15T03:17:22.539Z,59.70
2017-09-15T03:19:50.126Z,60.00
2017-09-15T03:22:17.758Z,60.40
2017-09-15T03:24:45.379Z,60.10
2017-09-15T03:27:12.986Z,59.90
2017-09-15T03:29:40.583Z,59.70
2017-09-15T03:32:08.190Z,59.90
2017-09-15T03:34:36.522Z,59.80
2017-09-15T03:37:04.090Z,59.70
2017-09-15T03:39:31.695Z,59.90
2017-09-15T03:41:59.258Z,59.90
2017-09-15T03:44:26.847Z,59.90
2017-09-15T03:46:54.442Z,59.90
2017-09-15T03:49:22.002Z,60.00
2017-09-15T03:51:49.594Z,60.00
2017-09-15T03:54:17.187Z,60.00
2017-09-15T03:56:44.755Z,59.90
2017-09-15T03:59:12.318Z,59.80
2017-09-15T04:01:40.238Z,59.90
2017-09-15T04:04:07.807Z,59.90
2017-09-15T04:06:35.398Z,59.60
2017-09-15T04:09:03.060Z,59.70
2017-09-15T04:11:30.643Z,59.70
2017-09-15T04:13:58.234Z,59.70
2017-09-15T04:16:25.854Z,59.80
2017-09-15T04:18:53.434Z,59.60
2017-09-15T04:21:20.998Z,59.60
2017-09-15T04:23:48.595Z,59.50
2017-09-15T04:26:16.282Z,59.70
2017-09-15T04:28:43.871Z,59.20
2017-09-15T04:31:12.239Z,59.60
2017-09-15T04:33:39.880Z,59.70
2017-09-15T04:36:07.447Z,59.80
2017-09-15T04:38:35.062Z,59.70
2017-09-15T04:41:02.675Z,59.60
2017-09-15T04:43:30.267Z,59.70
2017-09-15T04:45:58.730Z,59.70
2017-09-15T04:48:26.302Z,59.60
2017-09-15T04:50:53.938Z,59.20
2017-09-15T04:53:21.894Z,59.30
2017-09-15T04:55:49.466Z,59.10
2017-09-15T04:58:17.063Z,58.90
2017-09-15T05:00:44.683Z,58.80
2017-09-15T05:03:12.246Z,59.10
2017-09-15T05:05:39.810Z,58.90
2017-09-15T05:08:08.299Z,59.20
2017-09-15T05:10:35.894Z,58.70
2017-09-15T05:13:04.139Z,59.20
2017-09-15T05:15:38.470Z,58.90
2017-09-15T05:18:06.204Z,58.60
2017-09-15T05:20:33.766Z,58.60
2017-09-15T05:23:02.170Z,59.10
2017-09-15T05:25:29.743Z,59.10
2017-09-15T05:27:57.335Z,58.60
2017-09-15T05:30:24.979Z,59.00
2017-09-15T05:32:52.542Z,58.40
2017-09-15T05:35:20.106Z,58.60
2017-09-15T05:37:47.711Z,57.80
2017-09-15T05:40:16.983Z,58.20
2017-09-15T05:42:44.574Z,59.00
2017-09-15T05:45:12.175Z,58.30
2017-09-15T05:47:39.763Z,58.40
2017-09-15T05:50:07.331Z,58.60
2017-09-15T05:52:34.947Z,58.80
2017-09-15T05:55:02.527Z,58.70
2017-09-15T05:57:31.138Z,58.80
2017-09-15T05:59:58.758Z,58.90
2017-09-15T06:02:26.390Z,58.80
2017-09-15T06:04:53.991Z,58.80
2017-09-15T06:07:21.582Z,58.80
2017-09-15T06:09:49.147Z,58.40
2017-09-15T06:12:16.753Z,58.50
2017-09-15T06:14:45.887Z,58.20
2017-09-15T06:17:23.998Z,58.10
2017-09-15T06:20:24.777Z,58.30
2017-09-15T06:23:15.075Z,58.30
2017-09-15T06:28:37.394Z,58.10
2017-09-15T06:31:04.954Z,58.20
2017-09-15T06:33:32.614Z,58.50
2017-09-15T06:36:00.814Z,58.70
2017-09-15T06:38:28.386Z,58.50
2017-09-15T06:40:56.564Z,57.70
2017-09-15T06:43:24.158Z,58.30
2017-09-15T06:45:51.750Z,58.10
2017-09-15T06:48:19.727Z,58.30
2017-09-15T06:50:47.569Z,58.20
2017-09-15T06:53:15.130Z,58.20
2017-09-15T06:55:42.754Z,58.10
2017-09-15T06:58:10.846Z,58.10
2017-09-15T07:00:38.442Z,57.80
2017-09-15T07:03:06.052Z,58.30
2017-09-15T07:05:33.650Z,58.20
2017-09-15T07:08:01.554Z,57.60
2017-09-15T07:10:29.164Z,58.20
2017-09-15T07:12:56.735Z,58.50
2017-09-15T07:15:24.326Z,58.30
2017-09-15T07:17:51.951Z,58.10
2017-09-15T07:20:19.520Z,58.20
2017-09-15T07:22:47.094Z,57.80
2017-09-15T07:25:14.691Z,57.80
2017-09-15T07:27:42.282Z,57.70
2017-09-15T07:30:10.538Z,57.80
2017-09-15T07:32:38.158Z,57.80
2017-09-15T07:35:05.811Z,58.50
2017-09-15T07:37:33.418Z,58.60
2017-09-15T07:40:01.035Z,58.10
2017-09-15T07:42:28.639Z,56.90
2017-09-15T07:44:56.202Z,55.70
2017-09-15T07:47:24.027Z,56.00
2017-09-15T07:49:51.618Z,55.20
2017-09-15T07:52:19.211Z,53.80
2017-09-15T07:54:47.122Z,52.50
2017-09-15T07:57:14.701Z,51.60
2017-09-15T07:59:42.291Z,51.10
2017-09-15T08:02:09.893Z,51.00
2017-09-15T08:04:37.482Z,50.90
2017-09-15T08:07:05.839Z,50.50
2017-09-15T08:09:33.922Z,50.50
2017-09-15T08:12:01.540Z,50.20
2017-09-15T08:14:29.155Z,50.10
2017-09-15T08:16:56.782Z,50.00
2017-09-15T08:19:24.427Z,50.10
2017-09-15T08:21:52.006Z,50.00
2017-09-15T08:24:19.643Z,49.50
2017-09-15T08:26:47.215Z,49.60
2017-09-15T08:29:14.787Z,49.50
2017-09-15T08:31:42.414Z,49.30
2017-09-15T08:34:10.010Z,50.00
2017-09-15T08:36:37.587Z,50.10
2017-09-15T08:39:05.286Z,50.20
2017-09-15T08:41:32.894Z,50.40
2017-09-15T08:44:00.521Z,50.20
2017-09-15T08:46:28.226Z,49.90
2017-09-15T08:48:56.818Z,49.70
2017-09-15T08:51:25.197Z,50.00
2017-09-15T08:53:52.802Z,50.00
2017-09-15T08:56:20.366Z,50.00
2017-09-15T08:58:47.950Z,49.80
2017-09-15T09:01:15.575Z,50.10
2017-09-15T09:03:43.174Z,50.10
2017-09-15T09:06:10.770Z,49.80
2017-09-15T09:08:38.564Z,49.50
2017-09-15T09:11:06.203Z,49.70
2017-09-15T09:13:34.443Z,49.90
2017-09-15T09:16:02.087Z,49.20
2017-09-15T09:18:29.654Z,50.10
2017-09-15T09:20:57.231Z,49.70
2017-09-15T09:23:27.142Z,49.80
2017-09-15T09:25:54.745Z,49.80
2017-09-15T09:28:22.362Z,50.10
2017-09-15T09:30:50.218Z,50.10
2017-09-15T09:33:17.823Z,50.00
2017-09-15T09:35:45.393Z,50.00
2017-09-15T09:38:13.887Z,50.30
2017-09-15T09:40:41.459Z,50.30
2017-09-15T09:43:09.075Z,49.80
2017-09-15T09:45:36.678Z,49.50
2017-09-15T09:48:04.258Z,49.80
2017-09-15T09:50:31.998Z,49.40
2017-09-15T09:52:59.630Z,49.20
2017-09-15T09:55:27.235Z,48.90
2017-09-15T09:57:54.859Z,48.80
2017-09-15T10:00:22.511Z,48.60
2017-09-15T10:02:50.131Z,48.10
2017-09-15T10:05:17.722Z,48.10
2017-09-15T10:07:45.351Z,48.40
2017-09-15T10:10:12.928Z,48.30
2017-09-15T10:12:40.541Z,48.30
2017-09-15T10:15:08.182Z,48.40
2017-09-15T10:17:35.750Z,48.70
2017-09-15T10:20:03.422Z,48.80
2017-09-15T10:22:31.023Z,48.70
2017-09-15T10:24:58.935Z,49.10
2017-09-15T10:27:26.550Z,49.50
2017-09-15T10:29:55.511Z,50.00
2017-09-15T10:32:23.082Z,49.90
2017-09-15T10:34:50.678Z,50.20
2017-09-15T10:37:18.385Z,50.30
2017-09-15T10:39:46.658Z,50.50
2017-09-15T10:42:14.246Z,50.80
2017-09-15T10:44:42.743Z,50.90
2017-09-15T10:47:10.318Z,50.60
2017-09-15T10:49:37.898Z,51.30
2017-09-15T10:52:05.531Z,51.40
2017-09-15T10:54:33.774Z,51.80
2017-09-15T10:57:01.389Z,51.50
2017-09-15T10:59:35.275Z,52.70
2017-09-15T11:02:02.854Z,52.80
2017-09-15T11:04:30.570Z,53.80
2017-09-15T11:06:59.147Z,53.60
2017-09-15T11:09:28.831Z,53.70
2017-09-15T11:11:57.087Z,53.20
2017-09-15T11:14:25.488Z,53.90
2017-09-15T11:16:53.915Z,53.80
2017-09-15T11:19:21.522Z,53.80
2017-09-15T11:21:49.689Z,53.90
2017-09-15T11:24:17.410Z,53.90
2017-09-15T11:27:00.594Z,53.50
2017-09-15T11:29:28.190Z,53.60
2017-09-15T11:31:55.799Z,54.10
2017-09-15T11:34:23.423Z,54.20
2017-09-15T11:36:51.026Z,54.20
2017-09-15T11:39:18.605Z,54.90
2017-09-15T11:41:47.130Z,54.40
2017-09-15T11:44:14.698Z,53.90
2017-09-15T11:46:43.042Z,54.50
2017-09-15T11:49:10.662Z,54.00
2017-09-15T11:51:38.247Z,54.80
2017-09-15T11:54:05.819Z,54.50
2017-09-15T11:56:33.442Z,54.30
2017-09-15T11:59:01.021Z,54.50
2017-09-15T12:01:28.831Z,54.60
2017-09-15T12:03:57.249Z,54.60
2017-09-15T12:06:24.847Z,54.50
2017-09-15T12:08:52.459Z,54.60
2017-09-15T12:11:20.453Z,54.70
2017-09-15T12:13:48.026Z,54.60
2017-09-15T12:16:15.619Z,54.90
2017-09-15T12:18:43.221Z,54.90
2017-09-15T12:21:11.530Z,54.90
2017-09-15T12:23:39.110Z,54.60
2017-09-15T12:26:06.706Z,55.40
2017-09-15T12:28:34.302Z,58.10
2017-09-15T12:31:02.472Z,56.30
2017-09-15T12:33:30.107Z,55.90
2017-09-15T12:35:57.707Z,55.50
2017-09-15T12:38:25.279Z,55.60
2017-09-15T12:40:52.951Z,55.70
2017-09-15T12:43:20.599Z,55.80
2017-09-15T12:45:48.230Z,55.80
2017-09-15T12:48:15.907Z,55.80
2017-09-15T12:50:43.495Z,55.80
2017-09-15T12:53:11.078Z,55.80
2017-09-15T12:55:40.008Z,55.90
2017-09-15T12:58:08.563Z,56.30
2017-09-15T13:00:36.203Z,56.60
2017-09-15T13:03:03.822Z,56.60
2017-09-15T13:05:32.218Z,56.60
2017-09-15T13:07:59.790Z,56.60
2017-09-15T13:10:27.426Z,56.60
2017-09-15T13:12:55.007Z,56.50
2017-09-15T13:15:22.615Z,56.50
2017-09-15T13:17:50.242Z,56.50
2017-09-15T13:20:18.663Z,56.60
2017-09-15T13:22:46.306Z,56.50
2017-09-15T13:25:13.930Z,56.60
2017-09-15T13:27:41.530Z,56.50
2017-09-15T13:30:09.127Z,55.60
2017-09-15T13:32:36.755Z,56.00
2017-09-15T13:35:04.358Z,56.00
2017-09-15T13:37:32.009Z,56.00
2017-09-15T13:39:59.654Z,55.90
2017-09-15T13:42:27.231Z,56.00
2017-09-15T13:44:54.818Z,56.20
2017-09-15T13:47:22.451Z,56.20
2017-09-15T13:49:50.074Z,56.30
2017-09-15T13:52:17.695Z,56.00
2017-09-15T13:54:48.197Z,56.10
2017-09-15T13:57:15.794Z,55.80
2017-09-15T13:59:44.159Z,56.30
2017-09-15T14:02:11.783Z,56.30
2017-09-15T14:04:39.570Z,56.30
2017-09-15T14:07:07.179Z,56.30
2017-09-15T14:09:34.803Z,55.80
2017-09-15T14:12:02.406Z,55.80
2017-09-15T14:14:30.015Z,56.30
2017-09-15T14:16:57.627Z,56.20
2017-09-15T14:19:25.202Z,56.20
2017-09-15T14:21:52.807Z,56.30
2017-09-15T14:24:20.426Z,56.20
2017-09-15T14:26:48.208Z,56.20
2017-09-15T14:29:15.838Z,56.20
2017-09-15T14:31:43.749Z,56.30
2017-09-15T14:34:11.602Z,56.20
2017-09-15T14:36:39.182Z,56.30
2017-09-15T14:39:06.835Z,56.20
2017-09-15T14:41:34.459Z,56.20
2017-09-15T14:44:02.076Z,56.20
2017-09-15T14:46:29.775Z,56.20
2017-09-15T14:48:57.410Z,56.20
2017-09-15T14:51:25.784Z,56.20
2017-09-15T14:53:53.418Z,56.20
2017-09-15T14:56:20.993Z,56.20
2017-09-15T14:58:48.568Z,56.20
2017-09-15T15:01:16.198Z,56.20
2017-09-15T15:03:43.803Z,56.10
2017-09-15T15:06:11.375Z,56.20
2017-09-15T15:08:39.003Z,56.10
2017-09-15T15:11:06.603Z,56.10
2017-09-15T15:13:34.187Z,56.10
2017-09-15T15:16:01.818Z,56.10
2017-09-15T15:18:29.423Z,56.10
2017-09-15T15:20:57.208Z,56.10
2017-09-15T15:23:24.837Z,55.70
2017-09-15T15:25:52.780Z,56.20
2017-09-15T15:28:20.398Z,56.10
2017-09-15T15:30:48.031Z,56.10
2017-09-15T15:33:15.610Z,56.10
2017-09-15T15:35:43.206Z,56.10
2017-09-15T15:38:11.627Z,56.10
2017-09-15T15:40:40.036Z,56.10
2017-09-15T15:43:11.664Z,56.10
2017-09-15T15:45:42.721Z,56.10
2017-09-15T15:48:12.473Z,56.10
2017-09-15T15:50:44.458Z,56.80
2017-09-15T15:53:12.131Z,56.10
2017-09-15T15:55:39.723Z,56.20
2017-09-15T15:58:07.337Z,56.10
2017-09-15T16:00:35.053Z,56.20
2017-09-15T16:03:02.654Z,56.10
2017-09-15T16:05:30.259Z,56.20
2017-09-15T16:07:57.897Z,56.20
2017-09-15T16:10:25.503Z,56.20
2017-09-15T16:12:53.083Z,56.80
2017-09-15T16:15:20.689Z,56.20
2017-09-15T16:17:48.269Z,56.20
2017-09-15T16:20:17.676Z,56.20
2017-09-15T16:22:45.290Z,56.20
2017-09-15T16:25:12.891Z,56.30
2017-09-15T16:27:41.299Z,56.30
2017-09-15T16:30:09.743Z,56.30
2017-09-15T16:32:37.367Z,56.20
2017-09-15T16:35:05.316Z,55.70
2017-09-15T16:37:32.426Z,56.20
2017-09-15T16:40:05.513Z,56.20
2017-09-15T16:42:38.775Z,55.80
2017-09-15T16:45:11.881Z,56.20
2017-09-15T16:47:45.162Z,55.80
2017-09-15T16:50:12.750Z,55.70
2017-09-15T16:52:40.492Z,56.30
2017-09-15T16:55:08.091Z,56.30
2017-09-15T16:57:36.484Z,56.20
2017-09-15T17:00:04.895Z,56.20
2017-09-15T17:02:32.556Z,56.10
2017-09-15T17:05:00.170Z,56.10
2017-09-15T17:07:27.799Z,56.10
2017-09-15T17:09:55.495Z,56.10
2017-09-15T17:12:23.086Z,56.10
2017-09-15T17:14:50.662Z,55.80
2017-09-15T17:17:18.287Z,56.30
2017-09-15T17:19:45.917Z,56.30
2017-09-15T17:22:13.563Z,56.30
2017-09-15T17:24:41.174Z,56.40
2017-09-15T17:27:08.759Z,56.30
2017-09-15T17:29:36.339Z,56.50
2017-09-15T17:32:03.950Z,56.40
2017-09-15T17:34:32.290Z,56.50
2017-09-15T17:36:59.923Z,56.40
2017-09-15T17:39:27.547Z,56.30
2017-09-15T17:41:55.126Z,56.30
2017-09-15T17:44:22.695Z,55.80
2017-09-15T17:46:50.336Z,56.40
2017-09-15T17:49:18.134Z,55.90
2017-09-15T17:51:45.711Z,56.30
2017-09-15T17:54:13.314Z,56.30
2017-09-15T17:56:40.921Z,56.30
2017-09-15T17:59:08.579Z,56.30
2017-09-15T18:01:36.196Z,56.30
2017-09-15T18:04:03.791Z,56.30
2017-09-15T18:06:32.402Z,56.40
2017-09-15T18:09:00.098Z,56.30
2017-09-15T18:11:27.681Z,56.30
2017-09-15T18:13:55.254Z,56.30
2017-09-15T18:16:23.079Z,56.30
2017-09-15T18:18:50.679Z,56.30
2017-09-15T18:21:18.674Z,56.30
2017-09-15T18:23:46.287Z,55.80
2017-09-15T18:26:13.896Z,56.30
2017-09-15T18:28:41.517Z,56.30
2017-09-15T18:31:09.159Z,56.30
2017-09-15T18:33:36.769Z,56.30
2017-09-15T18:36:04.343Z,56.30
2017-09-15T18:38:31.971Z,56.30
2017-09-15T18:40:59.550Z,56.30
2017-09-15T18:43:27.118Z,56.20
2017-09-15T18:45:54.747Z,56.30
2017-09-15T18:48:22.354Z,56.20
2017-09-15T18:50:49.930Z,56.20
2017-09-15T18:53:17.559Z,56.30
2017-09-15T18:55:45.166Z,56.20
2017-09-15T18:58:12.772Z,56.20
2017-09-15T19:00:41.355Z,56.20
2017-09-15T19:03:09.680Z,56.10
2017-09-15T19:05:37.298Z,55.60
2017-09-15T19:08:04.930Z,56.10
2017-09-15T19:10:32.732Z,56.80
2017-09-15T19:13:00.335Z,56.10
2017-09-15T19:15:27.980Z,56.10
2017-09-15T19:17:55.614Z,56.10
2017-09-15T19:20:23.235Z,56.00
2017-09-15T19:22:50.872Z,56.10
2017-09-15T19:25:19.088Z,56.00
2017-09-15T19:27:46.703Z,56.00
2017-09-15T19:30:14.320Z,56.00
2017-09-15T19:32:41.919Z,56.70
2017-09-15T19:35:09.526Z,56.00
2017-09-15T19:37:37.820Z,56.00
2017-09-15T19:40:06.075Z,56.00
2017-09-15T19:42:33.927Z,55.90
2017-09-15T19:45:02.402Z,55.90
2017-09-15T19:47:30.001Z,55.90
2017-09-15T19:49:57.608Z,55.90
2017-09-15T19:52:25.932Z,56.10
2017-09-15T19:54:53.515Z,56.00
2017-09-15T19:57:21.154Z,56.00
2017-09-15T19:59:48.767Z,55.40
2017-09-15T20:02:16.345Z,56.00
2017-09-15T20:04:44.962Z,56.00
2017-09-15T20:07:12.640Z,55.90
2017-09-15T20:09:40.246Z,55.90
2017-09-15T20:12:07.851Z,55.90
2017-09-15T20:14:36.183Z,55.90
2017-09-15T20:17:03.763Z,55.90
2017-09-15T20:19:31.362Z,55.80
2017-09-15T20:21:59.695Z,55.90
2017-09-15T20:24:27.443Z,55.90
2017-09-15T20:26:55.875Z,55.80
2017-09-15T20:29:23.503Z,55.90
2017-09-15T20:31:51.684Z,56.00
2017-09-15T20:34:19.290Z,55.90
2017-09-15T20:36:46.899Z,55.80
2017-09-15T20:39:14.517Z,55.90
2017-09-15T20:41:42.159Z,55.90
2017-09-15T20:44:10.968Z,56.00
2017-09-15T20:46:38.579Z,56.00
2017-09-15T20:49:07.695Z,55.90
2017-09-15T20:51:35.331Z,55.90
2017-09-15T20:54:02.909Z,55.90
2017-09-15T20:56:30.504Z,55.90
2017-09-15T20:58:58.379Z,55.50
2017-09-15T21:01:25.988Z,56.00
2017-09-15T21:03:54.003Z,56.00
2017-09-15T21:06:21.607Z,56.00
2017-09-15T21:08:49.179Z,55.90
2017-09-15T21:11:16.782Z,56.00
2017-09-15T21:13:44.447Z,56.10
2017-09-15T21:16:12.045Z,56.70
2017-09-15T21:18:43.002Z,56.10
2017-09-15T21:21:10.623Z,56.10
2017-09-15T21:23:38.228Z,55.50
2017-09-15T21:26:05.823Z,56.10
2017-09-15T21:28:34.227Z,56.10
2017-09-15T21:31:02.088Z,56.00
2017-09-15T21:33:30.195Z,56.10
2017-09-15T21:47:41.502Z,55.70
2017-09-15T21:50:11.191Z,55.70
2017-09-15T21:52:38.798Z,56.30
2017-09-15T21:55:06.396Z,56.20
2017-09-15T21:57:33.999Z,56.10
2017-09-15T22:00:01.781Z,56.20
2017-09-15T22:02:29.760Z,56.20
2017-09-15T22:04:57.378Z,56.20
2017-09-15T22:07:25.259Z,56.10
2017-09-15T22:09:52.854Z,56.20
2017-09-15T22:12:20.445Z,56.20
2017-09-15T22:14:48.046Z,55.70
2017-09-15T22:17:15.676Z,56.30
2017-09-15T22:19:43.246Z,56.30
2017-09-15T22:22:10.806Z,56.90
2017-09-15T22:24:38.436Z,56.20
2017-09-15T22:27:06.075Z,56.20
2017-09-15T22:29:33.666Z,56.20
2017-09-15T22:32:01.299Z,56.20
2017-09-15T22:34:28.878Z,56.10
2017-09-15T22:36:56.472Z,55.80
2017-09-15T22:39:24.862Z,56.20
2017-09-15T22:41:52.463Z,56.10
2017-09-15T22:44:20.043Z,56.20
2017-09-15T22:46:47.673Z,56.20
2017-09-15T22:49:15.278Z,56.20
2017-09-15T22:51:43.179Z,56.20
2017-09-15T22:54:11.474Z,56.30
2017-09-15T22:56:39.072Z,56.30
2017-09-15T22:59:06.642Z,56.30
2017-09-15T23:01:34.790Z,56.90
2017-09-15T23:04:02.410Z,56.20
2017-09-15T23:06:30.011Z,56.20
2017-09-15T23:08:57.643Z,56.30
2017-09-15T23:11:25.230Z,56.30
2017-09-15T23:13:52.850Z,56.20
2017-09-15T23:16:20.470Z,56.20
2017-09-15T23:18:48.067Z,56.30
2017-09-15T23:21:15.670Z,56.20
2017-09-15T23:23:43.274Z,56.30
2017-09-15T23:26:11.631Z,56.30
2017-09-15T23:28:40.059Z,56.20
2017-09-15T23:31:07.998Z,56.30
2017-09-15T23:33:35.598Z,56.30
2017-09-15T23:36:03.359Z,56.30
2017-09-15T23:38:30.956Z,56.30
2017-09-15T23:40:59.319Z,56.30
2017-09-15T23:43:26.919Z,56.30
2017-09-15T23:45:54.518Z,56.30
2017-09-15T23:48:22.114Z,56.30
2017-09-15T23:50:49.685Z,56.20
2017-09-15T23:53:17.286Z,56.30
2017-09-15T23:55:44.918Z,56.30
2017-09-15T23:58:12.487Z,56.40
